createdAt,value
2022-08-25T00:05:00.869Z,23.7
2022-08-25T00:20:00.843Z,23.5
2022-08-25T00:35:00.871Z,23.2
2022-08-25T00:50:00.860Z,23.1
2022-08-25T01:05:00.844Z,22.9
2022-08-25T01:20:00.840Z,22.8
2022-08-25T01:35:00.847Z,22.6
2022-08-25T01:50:00.841Z,22.5
2022-08-25T02:05:00.846Z,22.2
2022-08-25T02:20:00.845Z,22.1
2022-08-25T02:35:00.841Z,21.5
2022-08-25T02:50:00.838Z,21.7
2022-08-25T03:05:00.870Z,21.4
2022-08-25T03:20:00.845Z,21.4
2022-08-25T03:35:00.866Z,21
2022-08-25T03:50:00.837Z,20.9
2022-08-25T04:05:00.860Z,20.7
2022-08-25T04:20:00.854Z,20.4
2022-08-25T04:35:00.860Z,20.2
2022-08-25T04:50:00.837Z,20.5
2022-08-25T05:05:00.844Z,20.4
2022-08-25T05:20:00.836Z,20.4
2022-08-25T05:35:00.839Z,20.4
2022-08-25T05:50:00.834Z,20.5
2022-08-25T06:05:00.845Z,20.6
2022-08-25T06:20:00.850Z,20.8
2022-08-25T06:35:00.844Z,21.2
2022-08-25T06:50:00.841Z,21.7
2022-08-25T07:05:00.844Z,21.9
2022-08-25T07:20:00.851Z,22.2
2022-08-25T07:35:00.897Z,22.7
2022-08-25T07:50:00.866Z,22.6
2022-08-25T08:05:00.843Z,23.1
2022-08-25T08:20:00.841Z,23.5
2022-08-25T08:35:00.846Z,24
2022-08-25T08:50:00.840Z,24.7
2022-08-25T09:05:00.850Z,25.2
2022-08-25T09:20:00.851Z,25.6
2022-08-25T09:35:00.858Z,25.7
2022-08-25T09:50:00.856Z,25.9
2022-08-25T10:05:00.895Z,26.2
2022-08-25T10:20:00.852Z,26.8
2022-08-25T10:35:00.846Z,27.1
2022-08-25T10:50:00.836Z,26.9
2022-08-25T11:05:00.883Z,27
2022-08-25T11:20:00.833Z,27.1
2022-08-25T11:35:00.859Z,27.9
2022-08-25T11:50:00.844Z,27.4
2022-08-25T12:05:00.975Z,28
2022-08-25T12:20:00.842Z,28.4
2022-08-25T12:35:00.842Z,28.8
2022-08-25T12:50:00.855Z,29
2022-08-25T13:05:00.842Z,28.8
2022-08-25T13:20:00.843Z,29.2
2022-08-25T13:35:00.842Z,29.6
2022-08-25T13:50:00.843Z,29.9
2022-08-25T14:05:00.851Z,30.6
2022-08-25T14:20:00.908Z,32.6
2022-08-25T14:35:03.829Z,34.8
2022-08-25T14:50:00.840Z,34.4
2022-08-25T15:05:00.848Z,34.1
2022-08-25T15:20:00.834Z,33.5
2022-08-25T15:35:00.855Z,34.2
2022-08-25T15:50:00.854Z,32.9
2022-08-25T16:05:00.841Z,33.3
2022-08-25T16:20:00.845Z,34
2022-08-25T16:35:00.848Z,33.2
2022-08-25T16:50:00.845Z,32
2022-08-25T17:05:00.844Z,32.2
2022-08-25T17:20:00.851Z,32.5
2022-08-25T17:35:00.848Z,31.9
2022-08-25T17:50:00.854Z,31.1
2022-08-25T18:05:00.845Z,30.4
2022-08-25T18:20:00.843Z,30
2022-08-25T18:35:00.839Z,29.6
2022-08-25T18:50:04.340Z,29.2
2022-08-25T19:05:04.363Z,29.1
2022-08-25T19:20:00.851Z,28.9
2022-08-25T19:35:00.850Z,28.6
2022-08-25T19:50:00.845Z,28.4
2022-08-25T20:05:00.861Z,28.1
2022-08-25T20:20:00.858Z,27.9
2022-08-25T20:35:00.846Z,27.6
2022-08-25T20:50:04.635Z,27.4
2022-08-25T21:05:00.841Z,26.8
2022-08-25T21:20:00.863Z,25.5
2022-08-25T21:35:00.839Z,24.6
2022-08-25T21:50:00.851Z,24.1
2022-08-25T22:05:01.068Z,23.8
2022-08-25T22:20:00.840Z,23.1
2022-08-25T22:35:00.843Z,22.8
2022-08-25T22:50:00.859Z,22.8
2022-08-25T23:05:01.095Z,21.9
2022-08-25T23:20:00.844Z,21.8
2022-08-25T23:35:00.840Z,21.3
2022-08-25T23:50:00.837Z,21.1
